sensor_id;sensor_type;location;lat;lon;timestamp;temperature;humidity
15203;DHT22;7702;51.046;5.184;2023-05-23T00:01:37;14.40;99.90
15203;DHT22;7702;51.046;5.184;2023-05-23T00:04:04;14.40;99.90
15203;DHT22;7702;51.046;5.184;2023-05-23T00:06:30;14.30;99.90
15203;DHT22;7702;51.046;5.184;2023-05-23T00:08:56;14.30;99.90
15203;DHT22;7702;51.046;5.184;2023-05-23T00:11:23;14.30;99.90
15203;DHT22;7702;51.046;5.184;2023-05-23T00:13:52;14.30;99.90
15203;DHT22;7702;51.046;5.184;2023-05-23T00:16:18;14.30;99.90
15203;DHT22;7702;51.046;5.184;2023-05-23T00:18:44;14.30;99.90
15203;DHT22;7702;51.046;5.184;2023-05-23T00:21:13;14.20;99.90
15203;DHT22;7702;51.046;5.184;2023-05-23T00:23:39;14.10;99.90
15203;DHT22;7702;51.046;5.184;2023-05-23T00:26:07;14.10;99.90
15203;DHT22;7702;51.046;5.184;2023-05-23T00:28:33;14.10;99.90
15203;DHT22;7702;51.046;5.184;2023-05-23T00:30:58;14.10;99.90
15203;DHT22;7702;51.046;5.184;2023-05-23T00:33:24;14.00;99.90
15203;DHT22;7702;51.046;5.184;2023-05-23T00:35:50;14.10;99.90
15203;DHT22;7702;51.046;5.184;2023-05-23T00:38:16;14.00;99.90
15203;DHT22;7702;51.046;5.184;2023-05-23T00:40:42;14.10;99.90
15203;DHT22;7702;51.046;5.184;2023-05-23T00:43:08;14.10;99.90
15203;DHT22;7702;51.046;5.184;2023-05-23T00:45:34;14.20;99.90
15203;DHT22;7702;51.046;5.184;2023-05-23T00:48:01;14.20;99.90
15203;DHT22;7702;51.046;5.184;2023-05-23T00:50:28;14.20;99.90
15203;DHT22;7702;51.046;5.184;2023-05-23T00:52:55;14.20;99.90
15203;DHT22;7702;51.046;5.184;2023-05-23T00:55:22;14.20;99.90
15203;DHT22;7702;51.046;5.184;2023-05-23T00:57:48;14.20;99.90
15203;DHT22;7702;51.046;5.184;2023-05-23T01:00:15;14.30;99.90
15203;DHT22;7702;51.046;5.184;2023-05-23T01:02:44;14.30;99.90
15203;DHT22;7702;51.046;5.184;2023-05-23T01:05:14;14.30;99.90
15203;DHT22;7702;51.046;5.184;2023-05-23T01:07:45;14.30;99.90
15203;DHT22;7702;51.046;5.184;2023-05-23T01:10:18;14.30;99.90
15203;DHT22;7702;51.046;5.184;2023-05-23T01:18:34;14.40;99.90
15203;DHT22;7702;51.046;5.184;2023-05-23T01:21:19;14.40;99.90
15203;DHT22;7702;51.046;5.184;2023-05-23T01:26:53;14.30;99.90
15203;DHT22;7702;51.046;5.184;2023-05-23T01:29:27;14.40;99.90
15203;DHT22;7702;51.046;5.184;2023-05-23T01:31:56;14.40;99.90
15203;DHT22;7702;51.046;5.184;2023-05-23T01:34:22;14.40;99.90
15203;DHT22;7702;51.046;5.184;2023-05-23T01:36:54;14.40;99.90
15203;DHT22;7702;51.046;5.184;2023-05-23T01:39:21;14.40;99.90
15203;DHT22;7702;51.046;5.184;2023-05-23T01:41:51;14.40;99.90
15203;DHT22;7702;51.046;5.184;2023-05-23T01:44:17;14.50;99.90
15203;DHT22;7702;51.046;5.184;2023-05-23T01:46:43;14.50;99.90
15203;DHT22;7702;51.046;5.184;2023-05-23T01:49:13;14.50;99.90
15203;DHT22;7702;51.046;5.184;2023-05-23T01:51:39;14.50;99.90
15203;DHT22;7702;51.046;5.184;2023-05-23T01:54:05;14.50;99.90
15203;DHT22;7702;51.046;5.184;2023-05-23T01:56:32;14.50;99.90
15203;DHT22;7702;51.046;5.184;2023-05-23T01:58:58;14.50;99.90
15203;DHT22;7702;51.046;5.184;2023-05-23T02:01:24;14.50;99.90
15203;DHT22;7702;51.046;5.184;2023-05-23T02:03:50;14.50;99.90
15203;DHT22;7702;51.046;5.184;2023-05-23T02:06:16;14.60;99.90
15203;DHT22;7702;51.046;5.184;2023-05-23T02:08:42;14.60;99.90
15203;DHT22;7702;51.046;5.184;2023-05-23T02:11:07;14.60;99.90
15203;DHT22;7702;51.046;5.184;2023-05-23T02:13:34;14.60;99.90
15203;DHT22;7702;51.046;5.184;2023-05-23T02:16:00;14.60;99.90
15203;DHT22;7702;51.046;5.184;2023-05-23T02:18:26;14.60;99.90
15203;DHT22;7702;51.046;5.184;2023-05-23T02:20:54;14.60;99.90
15203;DHT22;7702;51.046;5.184;2023-05-23T02:23:21;14.60;99.90
15203;DHT22;7702;51.046;5.184;2023-05-23T02:25:47;14.60;99.90
15203;DHT22;7702;51.046;5.184;2023-05-23T02:28:12;14.50;99.90
15203;DHT22;7702;51.046;5.184;2023-05-23T02:30:38;14.50;99.90
15203;DHT22;7702;51.046;5.184;2023-05-23T02:33:05;14.50;99.90
15203;DHT22;7702;51.046;5.184;2023-05-23T02:35:31;14.40;99.90
15203;DHT22;7702;51.046;5.184;2023-05-23T02:37:57;14.50;99.90
15203;DHT22;7702;51.046;5.184;2023-05-23T02:40:23;14.50;99.90
15203;DHT22;7702;51.046;5.184;2023-05-23T02:42:49;14.50;99.90
15203;DHT22;7702;51.046;5.184;2023-05-23T02:45:16;14.40;99.90
15203;DHT22;7702;51.046;5.184;2023-05-23T02:47:42;14.30;99.90
15203;DHT22;7702;51.046;5.184;2023-05-23T02:50:08;14.30;99.90
15203;DHT22;7702;51.046;5.184;2023-05-23T02:52:34;14.30;99.90
15203;DHT22;7702;51.046;5.184;2023-05-23T02:55:00;14.30;99.90
15203;DHT22;7702;51.046;5.184;2023-05-23T02:57:26;14.20;99.90
15203;DHT22;7702;51.046;5.184;2023-05-23T02:59:51;14.10;99.90
15203;DHT22;7702;51.046;5.184;2023-05-23T03:02:17;14.10;99.90
15203;DHT22;7702;51.046;5.184;2023-05-23T03:04:43;14.10;99.90
15203;DHT22;7702;51.046;5.184;2023-05-23T03:07:09;14.10;99.90
15203;DHT22;7702;51.046;5.184;2023-05-23T03:09:36;14.00;99.90
15203;DHT22;7702;51.046;5.184;2023-05-23T03:12:02;14.00;99.90
15203;DHT22;7702;51.046;5.184;2023-05-23T03:14:28;14.00;99.90
15203;DHT22;7702;51.046;5.184;2023-05-23T03:16:54;14.00;99.90
15203;DHT22;7702;51.046;5.184;2023-05-23T03:19:19;13.90;99.90
15203;DHT22;7702;51.046;5.184;2023-05-23T03:21:46;13.90;99.90
15203;DHT22;7702;51.046;5.184;2023-05-23T03:24:12;13.90;99.90
15203;DHT22;7702;51.046;5.184;2023-05-23T03:26:37;13.90;99.90
15203;DHT22;7702;51.046;5.184;2023-05-23T03:29:03;13.80;99.90
15203;DHT22;7702;51.046;5.184;2023-05-23T03:31:29;13.80;99.90
15203;DHT22;7702;51.046;5.184;2023-05-23T03:33:54;13.80;99.90
15203;DHT22;7702;51.046;5.184;2023-05-23T03:36:20;13.80;99.90
15203;DHT22;7702;51.046;5.184;2023-05-23T03:38:46;13.90;99.90
15203;DHT22;7702;51.046;5.184;2023-05-23T03:41:11;13.90;99.90
15203;DHT22;7702;51.046;5.184;2023-05-23T03:43:37;13.90;99.90
15203;DHT22;7702;51.046;5.184;2023-05-23T03:46:03;13.90;99.90
15203;DHT22;7702;51.046;5.184;2023-05-23T03:48:28;13.80;99.90
15203;DHT22;7702;51.046;5.184;2023-05-23T03:50:54;13.90;99.90
15203;DHT22;7702;51.046;5.184;2023-05-23T03:53:20;13.80;99.90
15203;DHT22;7702;51.046;5.184;2023-05-23T03:55:46;13.80;99.90
15203;DHT22;7702;51.046;5.184;2023-05-23T03:58:11;13.90;99.90
15203;DHT22;7702;51.046;5.184;2023-05-23T04:00:38;13.90;99.90
15203;DHT22;7702;51.046;5.184;2023-05-23T04:03:03;13.90;99.90
15203;DHT22;7702;51.046;5.184;2023-05-23T04:05:29;13.90;99.90
15203;DHT22;7702;51.046;5.184;2023-05-23T04:07:55;13.90;99.90
15203;DHT22;7702;51.046;5.184;2023-05-23T04:10:21;13.80;99.90
15203;DHT22;7702;51.046;5.184;2023-05-23T04:12:47;13.80;99.90
15203;DHT22;7702;51.046;5.184;2023-05-23T04:15:12;13.70;99.90
15203;DHT22;7702;51.046;5.184;2023-05-23T04:17:38;13.80;99.90
15203;DHT22;7702;51.046;5.184;2023-05-23T04:20:07;13.80;99.90
15203;DHT22;7702;51.046;5.184;2023-05-23T04:22:34;13.70;99.90
15203;DHT22;7702;51.046;5.184;2023-05-23T04:24:59;13.70;99.90
15203;DHT22;7702;51.046;5.184;2023-05-23T04:27:25;13.70;99.90
15203;DHT22;7702;51.046;5.184;2023-05-23T04:29:51;13.70;99.90
15203;DHT22;7702;51.046;5.184;2023-05-23T04:32:17;13.60;99.90
15203;DHT22;7702;51.046;5.184;2023-05-23T04:34:44;13.60;99.90
15203;DHT22;7702;51.046;5.184;2023-05-23T04:37:10;13.60;99.90
15203;DHT22;7702;51.046;5.184;2023-05-23T04:39:36;13.60;99.90
15203;DHT22;7702;51.046;5.184;2023-05-23T04:42:03;13.70;99.90
15203;DHT22;7702;51.046;5.184;2023-05-23T04:44:28;13.80;99.90
15203;DHT22;7702;51.046;5.184;2023-05-23T04:46:54;13.80;99.90
15203;DHT22;7702;51.046;5.184;2023-05-23T04:49:21;13.80;99.90
15203;DHT22;7702;51.046;5.184;2023-05-23T04:51:47;13.80;99.90
15203;DHT22;7702;51.046;5.184;2023-05-23T04:54:13;13.90;99.90
15203;DHT22;7702;51.046;5.184;2023-05-23T04:56:38;13.90;99.90
15203;DHT22;7702;51.046;5.184;2023-05-23T04:59:04;13.90;99.90
15203;DHT22;7702;51.046;5.184;2023-05-23T05:01:30;13.90;99.90
15203;DHT22;7702;51.046;5.184;2023-05-23T05:03:56;14.10;99.90
15203;DHT22;7702;51.046;5.184;2023-05-23T05:06:22;14.10;99.90
15203;DHT22;7702;51.046;5.184;2023-05-23T05:08:48;14.20;99.90
15203;DHT22;7702;51.046;5.184;2023-05-23T05:11:13;14.20;99.90
15203;DHT22;7702;51.046;5.184;2023-05-23T05:13:39;14.20;99.90
15203;DHT22;7702;51.046;5.184;2023-05-23T05:16:05;14.30;99.90
15203;DHT22;7702;51.046;5.184;2023-05-23T05:18:31;14.30;99.90
15203;DHT22;7702;51.046;5.184;2023-05-23T05:20:57;14.30;99.90
15203;DHT22;7702;51.046;5.184;2023-05-23T05:23:26;14.30;99.90
15203;DHT22;7702;51.046;5.184;2023-05-23T05:25:55;14.30;99.90
15203;DHT22;7702;51.046;5.184;2023-05-23T05:28:21;14.20;99.90
15203;DHT22;7702;51.046;5.184;2023-05-23T05:30:47;14.20;99.90
15203;DHT22;7702;51.046;5.184;2023-05-23T05:33:13;14.20;99.90
15203;DHT22;7702;51.046;5.184;2023-05-23T05:35:39;14.10;99.90
15203;DHT22;7702;51.046;5.184;2023-05-23T05:38:05;14.10;99.90
15203;DHT22;7702;51.046;5.184;2023-05-23T05:40:32;14.10;99.90
15203;DHT22;7702;51.046;5.184;2023-05-23T05:42:58;14.10;99.90
15203;DHT22;7702;51.046;5.184;2023-05-23T05:45:25;14.20;99.90
15203;DHT22;7702;51.046;5.184;2023-05-23T05:47:50;14.20;99.90
15203;DHT22;7702;51.046;5.184;2023-05-23T05:50:16;14.20;99.90
15203;DHT22;7702;51.046;5.184;2023-05-23T05:52:42;14.20;99.90
15203;DHT22;7702;51.046;5.184;2023-05-23T05:55:09;14.20;99.90
15203;DHT22;7702;51.046;5.184;2023-05-23T05:57:39;14.30;99.90
15203;DHT22;7702;51.046;5.184;2023-05-23T06:00:10;14.30;99.90
15203;DHT22;7702;51.046;5.184;2023-05-23T06:02:42;14.50;99.90
15203;DHT22;7702;51.046;5.184;2023-05-23T06:05:12;14.50;99.90
15203;DHT22;7702;51.046;5.184;2023-05-23T06:07:39;14.60;99.90
15203;DHT22;7702;51.046;5.184;2023-05-23T06:10:05;14.60;99.90
15203;DHT22;7702;51.046;5.184;2023-05-23T06:12:34;14.60;99.90
15203;DHT22;7702;51.046;5.184;2023-05-23T06:15:00;14.40;99.90
15203;DHT22;7702;51.046;5.184;2023-05-23T06:17:26;14.30;99.90
15203;DHT22;7702;51.046;5.184;2023-05-23T06:19:52;14.10;99.90
15203;DHT22;7702;51.046;5.184;2023-05-23T06:22:18;14.10;99.90
15203;DHT22;7702;51.046;5.184;2023-05-23T06:24:43;14.10;99.90
15203;DHT22;7702;51.046;5.184;2023-05-23T06:27:09;14.00;99.90
15203;DHT22;7702;51.046;5.184;2023-05-23T06:29:35;14.00;99.90
15203;DHT22;7702;51.046;5.184;2023-05-23T06:32:01;13.90;99.90
15203;DHT22;7702;51.046;5.184;2023-05-23T06:34:27;13.80;99.90
15203;DHT22;7702;51.046;5.184;2023-05-23T06:36:53;13.80;99.90
15203;DHT22;7702;51.046;5.184;2023-05-23T06:39:19;13.80;99.90
15203;DHT22;7702;51.046;5.184;2023-05-23T06:41:45;13.90;99.90
15203;DHT22;7702;51.046;5.184;2023-05-23T06:44:11;14.00;99.90
15203;DHT22;7702;51.046;5.184;2023-05-23T06:46:37;14.10;99.90
15203;DHT22;7702;51.046;5.184;2023-05-23T06:49:03;14.20;99.90
15203;DHT22;7702;51.046;5.184;2023-05-23T06:51:28;14.20;99.90
15203;DHT22;7702;51.046;5.184;2023-05-23T06:53:54;14.20;99.90
15203;DHT22;7702;51.046;5.184;2023-05-23T06:56:23;14.20;99.90
15203;DHT22;7702;51.046;5.184;2023-05-23T06:58:53;14.20;99.90
15203;DHT22;7702;51.046;5.184;2023-05-23T07:01:19;14.10;99.90
15203;DHT22;7702;51.046;5.184;2023-05-23T07:03:45;14.00;99.90
15203;DHT22;7702;51.046;5.184;2023-05-23T07:06:11;13.90;99.90
15203;DHT22;7702;51.046;5.184;2023-05-23T07:08:37;14.00;99.90
15203;DHT22;7702;51.046;5.184;2023-05-23T07:11:04;14.00;99.90
15203;DHT22;7702;51.046;5.184;2023-05-23T07:13:30;14.00;99.90
15203;DHT22;7702;51.046;5.184;2023-05-23T07:15:56;14.10;99.90
15203;DHT22;7702;51.046;5.184;2023-05-23T07:18:22;14.00;99.90
15203;DHT22;7702;51.046;5.184;2023-05-23T07:20:49;14.00;99.90
15203;DHT22;7702;51.046;5.184;2023-05-23T07:23:15;13.90;99.90
15203;DHT22;7702;51.046;5.184;2023-05-23T07:25:41;13.80;99.90
15203;DHT22;7702;51.046;5.184;2023-05-23T07:28:07;13.80;99.90
15203;DHT22;7702;51.046;5.184;2023-05-23T07:30:33;14.00;99.90
15203;DHT22;7702;51.046;5.184;2023-05-23T07:32:59;14.10;99.90
15203;DHT22;7702;51.046;5.184;2023-05-23T07:35:25;14.00;99.90
15203;DHT22;7702;51.046;5.184;2023-05-23T07:37:54;13.80;99.90
15203;DHT22;7702;51.046;5.184;2023-05-23T07:40:22;13.70;99.90
15203;DHT22;7702;51.046;5.184;2023-05-23T07:42:48;13.50;99.90
15203;DHT22;7702;51.046;5.184;2023-05-23T07:45:14;13.50;99.90
15203;DHT22;7702;51.046;5.184;2023-05-23T07:47:40;13.50;99.90
15203;DHT22;7702;51.046;5.184;2023-05-23T07:50:06;13.50;99.90
15203;DHT22;7702;51.046;5.184;2023-05-23T07:52:32;13.60;99.90
15203;DHT22;7702;51.046;5.184;2023-05-23T07:54:58;13.60;99.90
15203;DHT22;7702;51.046;5.184;2023-05-23T07:57:24;13.70;99.90
15203;DHT22;7702;51.046;5.184;2023-05-23T07:59:51;13.80;99.90
15203;DHT22;7702;51.046;5.184;2023-05-23T08:02:17;13.70;99.90
15203;DHT22;7702;51.046;5.184;2023-05-23T08:04:44;13.70;99.90
15203;DHT22;7702;51.046;5.184;2023-05-23T08:07:10;13.50;99.90
15203;DHT22;7702;51.046;5.184;2023-05-23T08:09:37;13.60;99.90
15203;DHT22;7702;51.046;5.184;2023-05-23T08:12:03;13.60;99.90
15203;DHT22;7702;51.046;5.184;2023-05-23T08:14:30;13.70;99.90
15203;DHT22;7702;51.046;5.184;2023-05-23T08:16:55;13.80;99.90
15203;DHT22;7702;51.046;5.184;2023-05-23T08:19:22;13.80;99.90
15203;DHT22;7702;51.046;5.184;2023-05-23T08:21:47;13.70;99.90
15203;DHT22;7702;51.046;5.184;2023-05-23T08:24:13;13.70;99.90
15203;DHT22;7702;51.046;5.184;2023-05-23T08:26:39;13.80;99.90
15203;DHT22;7702;51.046;5.184;2023-05-23T08:29:04;13.80;99.90
15203;DHT22;7702;51.046;5.184;2023-05-23T08:31:31;14.00;99.90
15203;DHT22;7702;51.046;5.184;2023-05-23T08:33:58;14.10;99.90
15203;DHT22;7702;51.046;5.184;2023-05-23T08:36:24;14.00;99.90
15203;DHT22;7702;51.046;5.184;2023-05-23T08:38:50;14.20;99.90
15203;DHT22;7702;51.046;5.184;2023-05-23T08:41:23;14.20;99.90
15203;DHT22;7702;51.046;5.184;2023-05-23T08:43:49;14.30;99.90
15203;DHT22;7702;51.046;5.184;2023-05-23T08:46:15;14.60;99.90
15203;DHT22;7702;51.046;5.184;2023-05-23T08:48:42;14.80;99.90
15203;DHT22;7702;51.046;5.184;2023-05-23T08:51:13;14.80;99.90
15203;DHT22;7702;51.046;5.184;2023-05-23T08:53:41;15.00;99.90
15203;DHT22;7702;51.046;5.184;2023-05-23T08:56:11;15.40;99.90
15203;DHT22;7702;51.046;5.184;2023-05-23T08:58:38;15.90;99.90
15203;DHT22;7702;51.046;5.184;2023-05-23T09:01:08;16.20;99.90
15203;DHT22;7702;51.046;5.184;2023-05-23T09:03:36;16.30;99.90
15203;DHT22;7702;51.046;5.184;2023-05-23T09:06:03;16.30;99.90
15203;DHT22;7702;51.046;5.184;2023-05-23T09:08:31;16.20;99.90
15203;DHT22;7702;51.046;5.184;2023-05-23T09:10:56;15.70;99.90
15203;DHT22;7702;51.046;5.184;2023-05-23T09:13:22;15.60;99.90
15203;DHT22;7702;51.046;5.184;2023-05-23T09:18:33;15.60;99.90
15203;DHT22;7702;51.046;5.184;2023-05-23T09:21:01;15.70;99.90
15203;DHT22;7702;51.046;5.184;2023-05-23T09:23:32;15.60;99.90
15203;DHT22;7702;51.046;5.184;2023-05-23T09:26:04;15.70;99.90
15203;DHT22;7702;51.046;5.184;2023-05-23T09:28:33;15.60;99.90
15203;DHT22;7702;51.046;5.184;2023-05-23T09:31:04;15.40;99.90
15203;DHT22;7702;51.046;5.184;2023-05-23T09:33:46;15.00;99.90
15203;DHT22;7702;51.046;5.184;2023-05-23T09:36:13;15.20;99.90
15203;DHT22;7702;51.046;5.184;2023-05-23T09:38:40;15.30;99.90
15203;DHT22;7702;51.046;5.184;2023-05-23T09:41:07;15.30;99.90
15203;DHT22;7702;51.046;5.184;2023-05-23T09:43:37;15.20;99.90
15203;DHT22;7702;51.046;5.184;2023-05-23T09:46:07;14.90;99.90
15203;DHT22;7702;51.046;5.184;2023-05-23T09:48:33;14.90;99.90
15203;DHT22;7702;51.046;5.184;2023-05-23T09:51:12;14.90;99.90
15203;DHT22;7702;51.046;5.184;2023-05-23T09:53:37;15.10;99.90
15203;DHT22;7702;51.046;5.184;2023-05-23T09:56:03;15.40;99.90
15203;DHT22;7702;51.046;5.184;2023-05-23T09:58:30;15.70;99.90
15203;DHT22;7702;51.046;5.184;2023-05-23T10:00:59;15.90;99.90
15203;DHT22;7702;51.046;5.184;2023-05-23T10:03:38;16.00;99.90
15203;DHT22;7702;51.046;5.184;2023-05-23T10:08:58;16.20;99.90
15203;DHT22;7702;51.046;5.184;2023-05-23T10:14:37;16.20;99.90
15203;DHT22;7702;51.046;5.184;2023-05-23T10:17:14;16.10;99.90
15203;DHT22;7702;51.046;5.184;2023-05-23T10:19:49;15.70;99.90
15203;DHT22;7702;51.046;5.184;2023-05-23T10:22:18;15.60;99.90
15203;DHT22;7702;51.046;5.184;2023-05-23T10:24:47;16.00;99.90
15203;DHT22;7702;51.046;5.184;2023-05-23T10:27:13;16.90;99.90
15203;DHT22;7702;51.046;5.184;2023-05-23T10:29:39;17.00;99.90
15203;DHT22;7702;51.046;5.184;2023-05-23T10:32:06;16.90;99.90
15203;DHT22;7702;51.046;5.184;2023-05-23T10:37:44;16.80;99.90
15203;DHT22;7702;51.046;5.184;2023-05-23T10:45:28;16.50;99.90
15203;DHT22;7702;51.046;5.184;2023-05-23T10:47:53;16.30;99.90
15203;DHT22;7702;51.046;5.184;2023-05-23T10:50:34;16.60;99.90
15203;DHT22;7702;51.046;5.184;2023-05-23T10:53:03;17.40;99.90
15203;DHT22;7702;51.046;5.184;2023-05-23T10:55:33;17.30;99.90
15203;DHT22;7702;51.046;5.184;2023-05-23T11:00:34;17.60;99.90
15203;DHT22;7702;51.046;5.184;2023-05-23T11:03:04;17.80;99.90
15203;DHT22;7702;51.046;5.184;2023-05-23T11:05:31;17.70;99.90
15203;DHT22;7702;51.046;5.184;2023-05-23T11:08:12;17.60;99.90
15203;DHT22;7702;51.046;5.184;2023-05-23T11:13:20;18.20;99.90
15203;DHT22;7702;51.046;5.184;2023-05-23T11:15:46;18.10;99.90
15203;DHT22;7702;51.046;5.184;2023-05-23T11:18:21;17.70;99.90
15203;DHT22;7702;51.046;5.184;2023-05-23T11:20:52;17.40;99.90
15203;DHT22;7702;51.046;5.184;2023-05-23T11:23:18;17.20;99.90
15203;DHT22;7702;51.046;5.184;2023-05-23T11:25:51;17.30;99.90
15203;DHT22;7702;51.046;5.184;2023-05-23T11:28:18;18.40;99.90
15203;DHT22;7702;51.046;5.184;2023-05-23T11:30:47;19.10;99.90
15203;DHT22;7702;51.046;5.184;2023-05-23T11:33:14;19.60;99.90
15203;DHT22;7702;51.046;5.184;2023-05-23T11:35:43;19.40;99.90
15203;DHT22;7702;51.046;5.184;2023-05-23T11:38:09;18.90;99.90
15203;DHT22;7702;51.046;5.184;2023-05-23T11:40:37;18.10;99.90
15203;DHT22;7702;51.046;5.184;2023-05-23T11:43:05;17.80;99.90
15203;DHT22;7702;51.046;5.184;2023-05-23T11:45:32;18.60;99.90
15203;DHT22;7702;51.046;5.184;2023-05-23T11:48:04;19.70;99.90
15203;DHT22;7702;51.046;5.184;2023-05-23T11:50:30;20.00;99.90
15203;DHT22;7702;51.046;5.184;2023-05-23T11:52:56;19.50;99.90
15203;DHT22;7702;51.046;5.184;2023-05-23T11:55:22;19.00;99.90
15203;DHT22;7702;51.046;5.184;2023-05-23T11:57:48;18.80;99.90
15203;DHT22;7702;51.046;5.184;2023-05-23T12:00:15;18.90;99.90
15203;DHT22;7702;51.046;5.184;2023-05-23T12:02:42;19.00;99.90
15203;DHT22;7702;51.046;5.184;2023-05-23T12:05:08;18.80;99.90
15203;DHT22;7702;51.046;5.184;2023-05-23T12:07:35;18.90;99.90
15203;DHT22;7702;51.046;5.184;2023-05-23T12:10:03;19.20;99.90
15203;DHT22;7702;51.046;5.184;2023-05-23T12:12:30;18.70;99.90
15203;DHT22;7702;51.046;5.184;2023-05-23T12:14:56;18.60;99.90
15203;DHT22;7702;51.046;5.184;2023-05-23T12:17:22;18.80;99.90
15203;DHT22;7702;51.046;5.184;2023-05-23T12:19:48;18.40;99.90
15203;DHT22;7702;51.046;5.184;2023-05-23T12:22:24;18.10;99.90
15203;DHT22;7702;51.046;5.184;2023-05-23T12:24:54;17.70;99.90
15203;DHT22;7702;51.046;5.184;2023-05-23T12:27:30;18.00;99.90
15203;DHT22;7702;51.046;5.184;2023-05-23T12:30:09;18.10;99.90
15203;DHT22;7702;51.046;5.184;2023-05-23T12:32:39;18.30;99.90
15203;DHT22;7702;51.046;5.184;2023-05-23T12:35:07;18.40;99.90
15203;DHT22;7702;51.046;5.184;2023-05-23T12:37:33;18.30;99.90
15203;DHT22;7702;51.046;5.184;2023-05-23T12:40:09;18.60;99.90
15203;DHT22;7702;51.046;5.184;2023-05-23T12:42:51;19.20;99.90
15203;DHT22;7702;51.046;5.184;2023-05-23T12:45:18;19.80;99.90
15203;DHT22;7702;51.046;5.184;2023-05-23T12:47:44;20.10;99.90
15203;DHT22;7702;51.046;5.184;2023-05-23T12:50:10;20.20;99.90
15203;DHT22;7702;51.046;5.184;2023-05-23T12:52:36;20.70;99.90
15203;DHT22;7702;51.046;5.184;2023-05-23T12:55:02;21.10;99.90
15203;DHT22;7702;51.046;5.184;2023-05-23T12:57:30;21.10;99.90
15203;DHT22;7702;51.046;5.184;2023-05-23T12:59:55;20.70;99.90
15203;DHT22;7702;51.046;5.184;2023-05-23T13:02:21;20.70;99.90
15203;DHT22;7702;51.046;5.184;2023-05-23T13:04:47;20.80;99.90
15203;DHT22;7702;51.046;5.184;2023-05-23T13:07:13;20.70;99.90
15203;DHT22;7702;51.046;5.184;2023-05-23T13:09:38;20.30;99.90
15203;DHT22;7702;51.046;5.184;2023-05-23T13:12:04;20.40;99.90
15203;DHT22;7702;51.046;5.184;2023-05-23T13:14:31;20.70;99.90
15203;DHT22;7702;51.046;5.184;2023-05-23T13:16:56;21.10;99.90
15203;DHT22;7702;51.046;5.184;2023-05-23T13:19:23;20.70;99.90
15203;DHT22;7702;51.046;5.184;2023-05-23T13:21:49;20.30;99.90
15203;DHT22;7702;51.046;5.184;2023-05-23T13:24:15;19.90;99.90
15203;DHT22;7702;51.046;5.184;2023-05-23T13:26:41;19.80;99.90
15203;DHT22;7702;51.046;5.184;2023-05-23T13:29:06;20.10;99.90
15203;DHT22;7702;51.046;5.184;2023-05-23T13:31:32;20.20;99.90
15203;DHT22;7702;51.046;5.184;2023-05-23T13:33:58;20.60;99.90
15203;DHT22;7702;51.046;5.184;2023-05-23T13:36:23;21.30;99.90
15203;DHT22;7702;51.046;5.184;2023-05-23T13:38:50;22.10;99.90
15203;DHT22;7702;51.046;5.184;2023-05-23T13:41:16;22.60;99.90
15203;DHT22;7702;51.046;5.184;2023-05-23T13:43:41;22.20;99.90
15203;DHT22;7702;51.046;5.184;2023-05-23T13:46:07;21.70;99.90
15203;DHT22;7702;51.046;5.184;2023-05-23T13:48:33;21.60;99.90
15203;DHT22;7702;51.046;5.184;2023-05-23T13:51:00;21.20;99.90
15203;DHT22;7702;51.046;5.184;2023-05-23T13:53:26;21.00;99.90
15203;DHT22;7702;51.046;5.184;2023-05-23T13:55:52;20.70;99.90
15203;DHT22;7702;51.046;5.184;2023-05-23T13:58:18;20.60;99.90
15203;DHT22;7702;51.046;5.184;2023-05-23T14:00:44;20.70;99.90
15203;DHT22;7702;51.046;5.184;2023-05-23T14:03:10;20.90;99.90
15203;DHT22;7702;51.046;5.184;2023-05-23T14:05:36;21.10;99.90
15203;DHT22;7702;51.046;5.184;2023-05-23T14:08:02;21.40;99.90
15203;DHT22;7702;51.046;5.184;2023-05-23T14:10:28;21.20;99.90
15203;DHT22;7702;51.046;5.184;2023-05-23T14:12:54;20.90;99.90
15203;DHT22;7702;51.046;5.184;2023-05-23T14:15:20;20.80;99.90
15203;DHT22;7702;51.046;5.184;2023-05-23T14:17:46;21.60;99.90
15203;DHT22;7702;51.046;5.184;2023-05-23T14:20:12;21.60;99.90
15203;DHT22;7702;51.046;5.184;2023-05-23T14:22:38;21.50;99.90
15203;DHT22;7702;51.046;5.184;2023-05-23T14:25:04;22.10;99.90
15203;DHT22;7702;51.046;5.184;2023-05-23T14:27:31;22.60;99.90
15203;DHT22;7702;51.046;5.184;2023-05-23T14:29:58;22.90;99.90
15203;DHT22;7702;51.046;5.184;2023-05-23T14:32:23;23.40;97.60
15203;DHT22;7702;51.046;5.184;2023-05-23T14:34:49;22.50;97.50
15203;DHT22;7702;51.046;5.184;2023-05-23T14:37:15;21.90;96.40
15203;DHT22;7702;51.046;5.184;2023-05-23T14:39:40;21.90;99.80
15203;DHT22;7702;51.046;5.184;2023-05-23T14:42:07;21.10;99.90
15203;DHT22;7702;51.046;5.184;2023-05-23T14:44:33;21.40;99.90
15203;DHT22;7702;51.046;5.184;2023-05-23T14:46:58;22.10;99.90
15203;DHT22;7702;51.046;5.184;2023-05-23T14:49:24;22.00;99.90
15203;DHT22;7702;51.046;5.184;2023-05-23T14:51:50;21.70;97.90
15203;DHT22;7702;51.046;5.184;2023-05-23T14:54:15;20.80;98.80
15203;DHT22;7702;51.046;5.184;2023-05-23T14:56:41;20.00;99.90
15203;DHT22;7702;51.046;5.184;2023-05-23T14:59:07;19.90;99.90
15203;DHT22;7702;51.046;5.184;2023-05-23T15:01:33;19.90;99.90
15203;DHT22;7702;51.046;5.184;2023-05-23T15:03:59;19.90;99.90
15203;DHT22;7702;51.046;5.184;2023-05-23T15:06:25;20.00;99.90
15203;DHT22;7702;51.046;5.184;2023-05-23T15:08:51;20.60;99.90
15203;DHT22;7702;51.046;5.184;2023-05-23T15:11:16;21.00;99.90
15203;DHT22;7702;51.046;5.184;2023-05-23T15:13:42;22.00;99.90
15203;DHT22;7702;51.046;5.184;2023-05-23T15:16:07;22.70;99.60
15203;DHT22;7702;51.046;5.184;2023-05-23T15:18:33;22.80;97.70
15203;DHT22;7702;51.046;5.184;2023-05-23T15:20:59;22.50;99.90
15203;DHT22;7702;51.046;5.184;2023-05-23T15:23:25;23.00;96.40
15203;DHT22;7702;51.046;5.184;2023-05-23T15:25:51;22.80;94.40
15203;DHT22;7702;51.046;5.184;2023-05-23T15:28:16;22.80;98.50
15203;DHT22;7702;51.046;5.184;2023-05-23T15:30:42;23.20;95.20
15203;DHT22;7702;51.046;5.184;2023-05-23T15:33:08;22.60;95.80
15203;DHT22;7702;51.046;5.184;2023-05-23T15:35:33;22.60;92.10
15203;DHT22;7702;51.046;5.184;2023-05-23T15:37:59;21.90;96.40
15203;DHT22;7702;51.046;5.184;2023-05-23T15:40:25;22.00;95.70
15203;DHT22;7702;51.046;5.184;2023-05-23T15:42:51;21.90;96.10
15203;DHT22;7702;51.046;5.184;2023-05-23T15:45:16;21.90;96.00
15203;DHT22;7702;51.046;5.184;2023-05-23T15:47:42;21.10;97.90
15203;DHT22;7702;51.046;5.184;2023-05-23T15:50:08;21.00;97.70
15203;DHT22;7702;51.046;5.184;2023-05-23T15:52:34;21.70;98.20
15203;DHT22;7702;51.046;5.184;2023-05-23T15:55:00;22.00;96.70
15203;DHT22;7702;51.046;5.184;2023-05-23T15:57:30;21.90;97.40
15203;DHT22;7702;51.046;5.184;2023-05-23T15:59:55;22.20;98.40
15203;DHT22;7702;51.046;5.184;2023-05-23T16:02:22;21.90;96.20
15203;DHT22;7702;51.046;5.184;2023-05-23T16:04:48;21.10;97.00
15203;DHT22;7702;51.046;5.184;2023-05-23T16:07:13;21.20;96.40
15203;DHT22;7702;51.046;5.184;2023-05-23T16:09:39;20.60;98.10
15203;DHT22;7702;51.046;5.184;2023-05-23T16:12:06;20.40;99.90
15203;DHT22;7702;51.046;5.184;2023-05-23T16:14:31;20.30;99.90